Time;durP1;ratioP1;P1;durP2;ratioP2;P2;SDS_P1;SDS_P2;PMS_P1;PMS_P2;Temp;Humidity;BMP_temperature;BMP_pressure;BME280_temperature;BME280_humidity;BME280_pressure;Samples;Min_cycle;Max_cycle;Signal;HPM_P1;HPM_P2
2022/01/14 00:01:21;;;;;;;24.03;9.67;;;0.80;99.90;;;;;;4204749;28;20514;-79
2022/01/14 00:03:22;;;;;;;22.53;8.80;;;0.80;99.90;;;;;;4205663;28;20452;-79
2022/01/14 00:05:24;;;;;;;20.93;9.27;;;0.70;99.90;;;;;;4207074;28;20468;-77
2022/01/14 00:07:26;;;;;;;25.10;9.40;;;0.80;99.90;;;;;;4204900;28;20520;-77
2022/01/14 00:09:28;;;;;;;22.47;9.53;;;0.70;99.90;;;;;;4205225;28;21045;-77
2022/01/14 00:11:31;;;;;;;23.50;9.77;;;0.70;99.90;;;;;;4212925;28;20457;-77
2022/01/14 00:13:48;;;;;;;22.83;9.83;;;0.70;99.90;;;;;;4213187;28;20472;-82
2022/01/14 00:15:51;;;;;;;22.13;9.23;;;0.70;99.90;;;;;;4206301;28;20469;-77
2022/01/14 00:17:53;;;;;;;23.83;9.00;;;0.70;99.90;;;;;;4212131;28;20532;-77
2022/01/14 00:19:54;;;;;;;23.13;9.43;;;0.70;99.90;;;;;;4215099;28;20460;-77
2022/01/14 00:21:56;;;;;;;17.77;8.03;;;0.70;99.90;;;;;;4216245;28;20508;-77
2022/01/14 00:24:07;;;;;;;21.43;9.00;;;0.70;99.90;;;;;;4211038;28;20471;-77
2022/01/14 00:33:08;;;;;;;20.43;9.70;;;0.60;99.90;;;;;;4214870;28;20482;-80
2022/01/14 00:35:10;;;;;;;23.70;9.43;;;0.60;99.90;;;;;;4214315;28;20464;-78
2022/01/14 00:37:14;;;;;;;25.20;10.63;;;0.60;99.90;;;;;;4217766;28;20482;-76
2022/01/14 00:39:16;;;;;;;22.93;10.30;;;0.60;99.90;;;;;;4215568;28;20495;-77
2022/01/14 00:41:18;;;;;;;25.43;10.00;;;0.60;99.90;;;;;;4214045;28;20521;-78
2022/01/14 00:43:19;;;;;;;23.07;8.67;;;0.50;99.90;;;;;;4213390;28;20476;-76
2022/01/14 00:45:22;;;;;;;23.93;9.73;;;0.50;99.90;;;;;;4211642;28;20455;-76
2022/01/14 00:47:24;;;;;;;20.70;9.30;;;0.50;99.90;;;;;;4216490;28;20475;-76
2022/01/14 00:49:27;;;;;;;21.83;9.67;;;0.50;99.90;;;;;;4213805;28;20514;-76
2022/01/14 00:51:28;;;;;;;21.33;9.60;;;0.40;99.90;;;;;;4215293;28;20953;-76
2022/01/14 00:53:30;;;;;;;26.93;10.20;;;0.50;99.90;;;;;;4212730;28;21046;-79
2022/01/14 00:55:45;;;;;;;26.03;10.40;;;0.40;99.90;;;;;;4211170;28;20830;-76
2022/01/14 01:00:08;;;;;;;27.10;11.27;;;0.40;99.90;;;;;;4209034;28;20479;-78
2022/01/14 01:02:10;;;;;;;26.50;11.17;;;0.40;99.90;;;;;;4214587;28;20474;-76
2022/01/14 01:04:13;;;;;;;22.80;10.37;;;0.40;99.90;;;;;;4215748;28;20804;-76
2022/01/14 01:06:16;;;;;;;25.77;10.53;;;0.40;99.90;;;;;;4211723;28;20482;-77
2022/01/14 01:08:22;;;;;;;27.10;10.37;;;0.40;99.90;;;;;;4215128;28;20490;-76
2022/01/14 01:10:24;;;;;;;25.93;10.77;;;0.40;99.90;;;;;;4214267;28;20548;-77
2022/01/14 01:12:34;;;;;;;25.40;9.80;;;0.40;99.90;;;;;;4215333;28;20468;-76
2022/01/14 01:14:43;;;;;;;28.33;10.50;;;0.40;99.90;;;;;;4215682;28;20459;-76
2022/01/14 01:16:45;;;;;;;24.67;10.47;;;0.40;99.90;;;;;;4214765;28;20482;-79
2022/01/14 01:18:47;;;;;;;24.27;10.73;;;0.30;99.90;;;;;;4213746;28;20478;-79
2022/01/14 01:20:49;;;;;;;25.47;10.53;;;0.40;99.90;;;;;;4216006;28;20477;-79
2022/01/14 01:22:57;;;;;;;25.17;10.50;;;0.40;99.90;;;;;;4216318;28;20459;-76
2022/01/14 01:24:58;;;;;;;21.93;9.23;;;0.30;99.90;;;;;;4215264;28;20973;-76
2022/01/14 01:27:04;;;;;;;23.90;9.80;;;0.30;99.90;;;;;;4217469;28;20988;-77
2022/01/14 01:29:30;;;;;;;21.93;9.20;;;0.30;99.90;;;;;;4209048;28;20504;-77
2022/01/14 01:31:38;;;;;;;24.53;10.37;;;0.30;99.90;;;;;;4208264;28;20449;-76
2022/01/14 01:33:40;;;;;;;25.73;9.60;;;0.30;99.90;;;;;;4214922;28;20508;-77
2022/01/14 01:35:42;;;;;;;27.47;11.20;;;0.30;99.90;;;;;;4204191;28;20472;-78
2022/01/14 01:37:44;;;;;;;25.93;10.50;;;0.20;99.90;;;;;;4215781;28;20890;-77
2022/01/14 01:39:47;;;;;;;27.53;10.70;;;0.20;99.90;;;;;;4210185;28;20965;-77
2022/01/14 01:41:51;;;;;;;22.20;9.73;;;0.20;99.90;;;;;;4210936;28;20468;-76
2022/01/14 01:43:54;;;;;;;24.80;9.77;;;0.20;99.90;;;;;;4210487;28;20848;-76
2022/01/14 01:45:56;;;;;;;25.13;10.20;;;0.20;99.90;;;;;;4214470;28;20455;-79
2022/01/14 01:48:01;;;;;;;25.60;10.27;;;0.10;99.90;;;;;;4213144;28;21086;-77
2022/01/14 01:50:10;;;;;;;22.67;9.93;;;0.10;99.90;;;;;;4214113;28;20496;-76
2022/01/14 01:52:11;;;;;;;23.70;9.80;;;0.10;99.90;;;;;;4215263;28;20455;-76
2022/01/14 01:54:14;;;;;;;23.80;9.70;;;0.10;99.90;;;;;;4203558;28;20468;-77
2022/01/14 01:56:17;;;;;;;20.10;9.50;;;0.00;99.90;;;;;;4213720;28;20497;-76
2022/01/14 01:58:19;;;;;;;26.97;10.27;;;0.00;99.90;;;;;;4214787;28;20882;-77
2022/01/14 02:00:26;;;;;;;25.40;9.93;;;0.00;99.90;;;;;;4212672;28;20504;-77
2022/01/14 02:02:29;;;;;;;24.57;10.37;;;0.00;99.90;;;;;;4206969;28;21000;-76
2022/01/14 02:04:32;;;;;;;27.20;10.43;;;0.00;99.90;;;;;;4212993;28;20452;-79
2022/01/14 02:06:37;;;;;;;26.17;10.83;;;0.00;99.90;;;;;;4211454;28;20531;-77
2022/01/14 02:08:38;;;;;;;23.20;9.87;;;0.00;99.90;;;;;;4214249;28;20551;-77
2022/01/14 02:10:40;;;;;;;26.77;10.47;;;0.00;99.90;;;;;;4213930;28;21038;-78
2022/01/14 02:12:49;;;;;;;25.30;10.57;;;0.00;99.90;;;;;;4208926;28;20538;-76
2022/01/14 02:15:08;;;;;;;24.80;10.10;;;0.00;99.90;;;;;;4211940;28;20588;-77
2022/01/14 02:17:29;;;;;;;25.40;10.43;;;-0.10;99.90;;;;;;4214005;28;21007;-77
2022/01/14 02:19:43;;;;;;;26.83;10.17;;;0.00;99.90;;;;;;4214456;28;20956;-76
2022/01/14 02:24:20;;;;;;;24.30;10.40;;;-0.10;99.90;;;;;;4209382;28;20463;-76
2022/01/14 02:26:23;;;;;;;26.53;10.00;;;-0.10;99.90;;;;;;4212499;28;20483;-76
2022/01/14 02:28:26;;;;;;;26.17;10.37;;;-0.10;99.90;;;;;;4214292;28;20524;-76
2022/01/14 02:30:29;;;;;;;26.33;10.70;;;-0.10;99.90;;;;;;4206813;28;20910;-79
2022/01/14 02:32:30;;;;;;;27.17;11.07;;;-0.10;99.90;;;;;;4207468;28;20886;-76
2022/01/14 02:34:34;;;;;;;27.47;10.93;;;-0.20;99.90;;;;;;4204199;28;20624;-76
2022/01/14 02:36:35;;;;;;;26.10;10.20;;;-0.20;99.90;;;;;;4214330;28;20447;-76
2022/01/14 02:38:38;;;;;;;20.87;9.60;;;-0.20;99.90;;;;;;4213676;28;20517;-76
2022/01/14 02:40:40;;;;;;;25.73;10.67;;;-0.20;99.90;;;;;;4210981;28;20533;-76
2022/01/14 02:42:42;;;;;;;26.50;10.03;;;-0.20;99.90;;;;;;4197146;28;20452;-77
2022/01/14 02:44:44;;;;;;;27.90;11.03;;;-0.20;99.90;;;;;;4211512;28;20951;-78
2022/01/14 02:46:53;;;;;;;25.47;10.17;;;-0.20;99.90;;;;;;4214038;28;20479;-78
2022/01/14 02:48:55;;;;;;;23.17;9.23;;;-0.30;99.90;;;;;;4214419;28;20471;-76
2022/01/14 02:51:01;;;;;;;28.47;11.20;;;-0.30;99.90;;;;;;4213726;28;20900;-76
2022/01/14 02:53:13;;;;;;;27.30;10.77;;;-0.30;99.90;;;;;;4216279;28;20884;-80
2022/01/14 02:55:17;;;;;;;27.37;10.70;;;-0.30;99.90;;;;;;4213579;28;20478;-79
2022/01/14 02:57:20;;;;;;;25.30;10.10;;;-0.30;99.90;;;;;;4203680;28;20488;-80
2022/01/14 02:59:22;;;;;;;20.20;9.70;;;-0.30;99.90;;;;;;4209772;28;20448;-79
2022/01/14 03:01:25;;;;;;;26.60;10.33;;;-0.40;99.90;;;;;;4215020;28;20532;-80
2022/01/14 03:03:30;;;;;;;21.13;9.97;;;-0.40;99.90;;;;;;4216921;28;20887;-78
2022/01/14 03:05:32;;;;;;;27.90;10.33;;;-0.40;99.90;;;;;;4206904;28;20973;-80
2022/01/14 03:07:36;;;;;;;25.30;9.93;;;-0.10;99.90;;;;;;4215861;28;21030;-78
2022/01/14 03:09:38;;;;;;;27.23;10.93;;;-0.40;99.90;;;;;;4215159;28;20463;-80
2022/01/14 03:11:43;;;;;;;24.13;10.43;;;-0.40;99.90;;;;;;4216272;28;20912;-80
2022/01/14 03:13:45;;;;;;;27.03;10.70;;;-0.40;99.90;;;;;;4215780;28;20496;-78
2022/01/14 03:15:47;;;;;;;25.50;10.57;;;-0.40;99.90;;;;;;4206650;28;20513;-79
2022/01/14 03:17:49;;;;;;;26.87;10.80;;;-0.40;99.90;;;;;;4204259;28;20898;-80
2022/01/14 03:19:50;;;;;;;26.90;9.73;;;-0.40;99.90;;;;;;4209350;28;20467;-80
2022/01/14 03:22:03;;;;;;;28.07;12.17;;;-0.40;99.90;;;;;;4215687;28;20487;-79
2022/01/14 03:24:17;;;;;;;26.53;10.70;;;-0.40;99.90;;;;;;4216887;28;20463;-78
2022/01/14 03:26:21;;;;;;;29.67;11.07;;;-0.50;99.90;;;;;;4213615;28;20470;-80
2022/01/14 03:28:24;;;;;;;25.93;10.40;;;-0.40;99.90;;;;;;4216924;28;20513;-79
2022/01/14 03:30:26;;;;;;;25.87;10.70;;;-0.50;99.90;;;;;;4216127;28;20490;-79
2022/01/14 03:32:28;;;;;;;26.00;10.10;;;-0.50;99.90;;;;;;4217558;28;20459;-78
2022/01/14 03:34:30;;;;;;;26.50;10.73;;;-0.50;99.90;;;;;;4214000;28;20524;-80
2022/01/14 03:36:32;;;;;;;28.57;11.00;;;-0.50;99.90;;;;;;4204337;28;20464;-79
2022/01/14 03:38:34;;;;;;;28.03;10.77;;;-0.50;99.90;;;;;;4201907;28;20516;-78
2022/01/14 03:40:37;;;;;;;29.33;11.37;;;-0.50;99.90;;;;;;4200693;28;20514;-79
2022/01/14 03:42:39;;;;;;;27.70;11.27;;;-0.50;99.90;;;;;;4218311;28;20463;-80
2022/01/14 03:44:40;;;;;;;24.33;10.47;;;-0.50;99.90;;;;;;4209381;28;20866;-80
2022/01/14 03:46:43;;;;;;;26.40;10.33;;;-0.50;99.90;;;;;;4213245;28;20451;-79
2022/01/14 03:48:45;;;;;;;25.57;10.33;;;-0.60;99.90;;;;;;4213879;28;20489;-80
2022/01/14 03:50:47;;;;;;;28.63;10.83;;;-0.60;99.90;;;;;;4213729;28;20541;-80
2022/01/14 03:52:49;;;;;;;29.90;11.43;;;-0.60;99.90;;;;;;4212624;28;20471;-80
2022/01/14 03:54:50;;;;;;;22.60;10.50;;;-0.60;99.90;;;;;;4212303;28;20459;-80
2022/01/14 03:56:54;;;;;;;28.60;11.00;;;-0.60;99.90;;;;;;4205971;28;20577;-79
2022/01/14 03:58:55;;;;;;;27.53;10.53;;;-0.60;99.90;;;;;;4205159;28;20472;-80
2022/01/14 04:00:57;;;;;;;24.87;10.37;;;-0.60;99.90;;;;;;4208208;28;20834;-80
2022/01/14 04:02:59;;;;;;;27.73;10.67;;;-0.60;99.90;;;;;;4199401;28;20449;-80
2022/01/14 04:05:01;;;;;;;26.77;10.57;;;-0.60;99.90;;;;;;4206185;28;20451;-80
2022/01/14 04:07:03;;;;;;;26.77;10.43;;;-0.60;99.90;;;;;;4213861;28;20478;-80
2022/01/14 04:09:06;;;;;;;24.70;10.03;;;-0.60;99.90;;;;;;4212723;28;20532;-80
2022/01/14 04:11:09;;;;;;;23.23;9.57;;;-0.70;99.90;;;;;;4210529;28;20533;-80
2022/01/14 04:13:19;;;;;;;27.87;10.97;;;-0.70;99.90;;;;;;4205456;28;20462;-80
2022/01/14 04:15:38;;;;;;;24.97;11.00;;;-0.70;99.90;;;;;;4203086;28;20886;-78
2022/01/14 04:17:39;;;;;;;27.10;10.50;;;-0.70;99.90;;;;;;4211156;22;20513;-79
2022/01/14 04:19:41;;;;;;;25.97;10.50;;;-0.70;99.90;;;;;;4162931;28;20518;-79
2022/01/14 04:21:43;;;;;;;25.20;10.57;;;-0.70;99.90;;;;;;4160568;28;20455;-79
2022/01/14 04:23:44;;;;;;;29.40;10.30;;;0.10;99.90;;;;;;4162915;28;20494;-79
2022/01/14 04:25:48;;;;;;;28.80;11.10;;;-0.70;99.90;;;;;;4163455;28;20879;-79
2022/01/14 04:27:50;;;;;;;25.80;10.37;;;-0.70;99.90;;;;;;4160009;28;20516;-80
2022/01/14 04:29:53;;;;;;;25.03;10.17;;;-0.70;99.90;;;;;;4162424;28;20781;-80
2022/01/14 04:31:54;;;;;;;28.30;11.17;;;-0.70;99.90;;;;;;4156493;28;20869;-80
2022/01/14 04:33:56;;;;;;;26.53;11.13;;;-0.70;99.90;;;;;;4157027;28;20472;-80
2022/01/14 04:35:59;;;;;;;27.67;11.13;;;-0.80;99.90;;;;;;4152141;28;20454;-80
2022/01/14 04:38:01;;;;;;;27.73;10.23;;;-0.80;99.90;;;;;;4163163;28;20489;-80
2022/01/14 04:40:05;;;;;;;29.77;11.40;;;-0.80;99.90;;;;;;4169089;28;20453;-80
2022/01/14 04:42:07;;;;;;;25.47;10.67;;;-0.80;99.90;;;;;;4166601;28;20445;-79
2022/01/14 04:44:09;;;;;;;27.27;11.33;;;-0.80;99.90;;;;;;4167129;28;20811;-80
2022/01/14 04:46:46;;;;;;;34.23;11.47;;;-0.80;99.90;;;;;;4175153;28;20457;-80
2022/01/14 04:48:47;;;;;;;32.07;11.67;;;-0.80;99.90;;;;;;4173464;28;20460;-80
2022/01/14 04:50:51;;;;;;;27.17;11.17;;;-0.80;99.90;;;;;;4165139;28;20542;-79
2022/01/14 04:52:53;;;;;;;28.53;11.57;;;-0.80;99.90;;;;;;4166078;28;20473;-80
2022/01/14 04:54:56;;;;;;;28.70;11.37;;;-0.80;99.90;;;;;;4168562;28;20870;-80
2022/01/14 04:56:58;;;;;;;32.07;12.03;;;-0.80;99.90;;;;;;4165226;28;20564;-80
2022/01/14 04:58:59;;;;;;;28.97;11.73;;;-0.80;99.90;;;;;;4165423;28;20909;-80
2022/01/14 05:01:01;;;;;;;29.30;10.40;;;-0.70;99.90;;;;;;4161231;28;20486;-80
2022/01/14 05:03:04;;;;;;;25.97;10.83;;;-0.70;99.90;;;;;;4165440;28;20481;-80
2022/01/14 05:05:07;;;;;;;30.07;10.77;;;-0.70;99.90;;;;;;4175203;28;20464;-80
2022/01/14 05:07:13;;;;;;;26.47;10.67;;;-0.80;99.90;;;;;;4175086;28;20454;-80
2022/01/14 05:09:23;;;;;;;27.93;10.60;;;-0.70;99.90;;;;;;4164272;28;20827;-80
2022/01/14 05:11:37;;;;;;;30.10;12.03;;;-0.70;99.90;;;;;;4168491;28;20481;-80
2022/01/14 05:13:38;;;;;;;29.60;11.13;;;-0.70;99.90;;;;;;4168300;28;20484;-80
2022/01/14 05:15:40;;;;;;;25.70;10.57;;;-0.70;99.90;;;;;;4168406;28;20458;-80
2022/01/14 05:17:42;;;;;;;31.47;11.27;;;-0.70;99.90;;;;;;4165541;28;20500;-80
2022/01/14 05:19:45;;;;;;;35.43;11.83;;;-0.70;99.90;;;;;;4170189;28;20473;-80
2022/01/14 05:21:47;;;;;;;30.13;12.27;;;-0.70;99.90;;;;;;4173966;28;20451;-80
2022/01/14 05:23:48;;;;;;;26.87;11.07;;;-0.70;99.90;;;;;;4165769;28;20464;-80
2022/01/14 05:25:50;;;;;;;29.53;11.13;;;-0.70;99.90;;;;;;4167335;28;20477;-79
2022/01/14 05:27:52;;;;;;;27.80;11.10;;;-0.70;99.90;;;;;;4165850;28;20502;-79
2022/01/14 05:29:53;;;;;;;29.80;11.00;;;-0.80;99.90;;;;;;4167781;28;20470;-80
2022/01/14 05:32:02;;;;;;;27.80;10.47;;;-0.50;99.90;;;;;;4159715;28;20544;-80
2022/01/14 05:34:05;;;;;;;25.53;10.60;;;-0.80;99.90;;;;;;4165537;28;20477;-80
2022/01/14 05:36:08;;;;;;;27.47;10.70;;;-0.80;99.90;;;;;;4169853;28;20457;-80
2022/01/14 05:38:10;;;;;;;25.53;10.47;;;-0.80;99.90;;;;;;4170419;28;20485;-79
2022/01/14 05:40:13;;;;;;;26.63;10.53;;;-0.80;99.90;;;;;;4173161;28;20504;-80
2022/01/14 05:42:15;;;;;;;29.70;10.77;;;-0.80;99.90;;;;;;4173546;28;20480;-79
2022/01/14 05:44:17;;;;;;;30.33;11.60;;;-0.80;99.90;;;;;;4162815;28;20478;-80
2022/01/14 05:46:22;;;;;;;27.30;10.73;;;-0.80;99.90;;;;;;4162868;28;20485;-79
2022/01/14 05:48:24;;;;;;;26.67;10.87;;;-0.80;99.90;;;;;;4172010;28;20486;-81
2022/01/14 05:50:26;;;;;;;25.90;11.13;;;-0.90;99.90;;;;;;4181679;28;20560;-82
2022/01/14 05:52:30;;;;;;;29.93;10.50;;;-0.80;99.90;;;;;;4180436;28;20493;-81
2022/01/14 05:54:31;;;;;;;29.70;11.83;;;-0.80;99.90;;;;;;4162133;28;20964;-80
2022/01/14 05:56:33;;;;;;;27.77;10.53;;;-0.80;99.90;;;;;;4159697;28;21018;-81
2022/01/14 05:58:35;;;;;;;29.10;11.53;;;-0.80;99.90;;;;;;4167677;28;20462;-80
2022/01/14 06:00:37;;;;;;;32.60;11.30;;;-0.80;99.90;;;;;;4155178;28;20470;-80
2022/01/14 06:02:39;;;;;;;31.47;11.63;;;-0.80;99.90;;;;;;4166349;28;20481;-80
2022/01/14 06:04:42;;;;;;;26.63;10.57;;;-0.80;99.90;;;;;;4164356;28;20533;-80
2022/01/14 06:06:44;;;;;;;33.10;12.50;;;-0.80;99.90;;;;;;4174370;28;20529;-80
2022/01/14 06:08:49;;;;;;;30.07;11.40;;;-0.80;99.90;;;;;;4165489;28;20490;-80
2022/01/14 06:10:50;;;;;;;25.50;10.20;;;-0.80;99.90;;;;;;4166654;28;20544;-80
2022/01/14 06:12:52;;;;;;;28.50;10.80;;;-0.80;99.90;;;;;;4164553;28;20512;-79
2022/01/14 06:14:54;;;;;;;25.13;10.30;;;-0.80;99.90;;;;;;4161967;28;20976;-80
2022/01/14 06:16:55;;;;;;;31.00;12.00;;;-0.80;99.90;;;;;;4165499;28;20454;-79
2022/01/14 06:18:57;;;;;;;29.47;10.80;;;-0.80;99.90;;;;;;4166099;28;20473;-79
2022/01/14 06:20:59;;;;;;;24.17;10.17;;;-0.80;99.90;;;;;;4166085;28;20482;-79
2022/01/14 06:23:00;;;;;;;24.23;10.97;;;-0.80;99.90;;;;;;4165780;28;20473;-79
2022/01/14 06:25:04;;;;;;;24.17;9.93;;;0.00;99.90;;;;;;4159984;28;20458;-79
2022/01/14 06:27:06;;;;;;;29.53;11.67;;;-0.80;99.90;;;;;;4167755;28;20462;-80
2022/01/14 06:29:07;;;;;;;29.23;11.83;;;-0.80;99.90;;;;;;4164828;28;20497;-79
2022/01/14 06:31:09;;;;;;;26.23;11.17;;;-0.80;99.90;;;;;;4164234;28;20460;-79
2022/01/14 06:33:11;;;;;;;29.83;11.30;;;-0.80;99.90;;;;;;4164647;28;20497;-79
2022/01/14 06:35:15;;;;;;;30.03;10.87;;;-0.80;99.90;;;;;;4163552;28;20506;-79
2022/01/14 06:37:17;;;;;;;25.73;10.27;;;-0.80;99.90;;;;;;4163345;28;20503;-79
2022/01/14 06:39:19;;;;;;;24.80;10.00;;;-0.80;99.90;;;;;;4163706;28;20539;-79
2022/01/14 06:41:22;;;;;;;28.60;11.43;;;-0.80;99.90;;;;;;4166879;28;20457;-79
2022/01/14 06:43:23;;;;;;;26.50;10.47;;;-0.80;99.90;;;;;;4164814;28;20469;-79
2022/01/14 06:45:25;;;;;;;23.20;10.20;;;-0.80;99.90;;;;;;4164918;28;20453;-79
2022/01/14 06:47:27;;;;;;;27.23;11.00;;;-0.80;99.90;;;;;;4167345;28;20470;-80
2022/01/14 06:49:29;;;;;;;26.03;10.47;;;-0.70;99.90;;;;;;4166736;28;20963;-78
2022/01/14 06:51:30;;;;;;;26.77;10.53;;;-0.70;99.90;;;;;;4164047;28;20906;-78
2022/01/14 06:53:32;;;;;;;30.80;11.20;;;-0.70;99.90;;;;;;4167635;28;20587;-79
2022/01/14 06:55:34;;;;;;;26.63;11.33;;;-0.70;99.90;;;;;;4166532;28;20949;-79
2022/01/14 06:57:38;;;;;;;25.47;10.50;;;-0.70;99.90;;;;;;4160457;28;20494;-79
2022/01/14 06:59:39;;;;;;;29.00;10.67;;;-0.60;99.90;;;;;;4164346;28;20483;-79
2022/01/14 07:01:41;;;;;;;27.77;11.00;;;-0.60;99.90;;;;;;4160505;28;20469;-79
2022/01/14 07:03:43;;;;;;;27.57;11.50;;;-0.50;99.90;;;;;;4160078;28;20459;-79
2022/01/14 07:05:44;;;;;;;26.43;11.13;;;-0.50;99.90;;;;;;4165152;28;20486;-79
2022/01/14 07:07:47;;;;;;;26.70;11.27;;;-0.50;99.90;;;;;;4166061;28;20538;-79
2022/01/14 07:09:57;;;;;;;31.40;12.57;;;-0.50;99.90;;;;;;4168199;28;20784;-79
2022/01/14 07:12:01;;;;;;;30.10;12.27;;;-0.40;99.90;;;;;;4163916;28;20512;-79
2022/01/14 07:14:04;;;;;;;31.57;13.03;;;-0.40;99.90;;;;;;4165932;28;20479;-79
2022/01/14 07:16:06;;;;;;;32.20;12.67;;;-0.40;99.90;;;;;;4163365;28;20532;-80
2022/01/14 07:18:09;;;;;;;32.37;12.70;;;-0.40;99.90;;;;;;4164455;28;20875;-80
2022/01/14 07:20:13;;;;;;;32.07;13.17;;;-0.40;99.90;;;;;;4164722;28;20460;-80
2022/01/14 07:22:15;;;;;;;30.43;11.90;;;-0.30;99.90;;;;;;4165108;28;21020;-80
2022/01/14 07:24:17;;;;;;;29.83;12.37;;;-0.30;99.90;;;;;;4166284;28;20449;-80
2022/01/14 07:26:19;;;;;;;30.80;12.07;;;-0.30;99.90;;;;;;4162205;28;20474;-80
2022/01/14 07:28:20;;;;;;;32.83;12.83;;;-0.20;99.90;;;;;;4155197;28;20568;-79
2022/01/14 07:30:23;;;;;;;36.27;13.57;;;-0.20;99.90;;;;;;4164205;28;20553;-77
2022/01/14 07:32:26;;;;;;;32.50;12.17;;;-0.20;99.90;;;;;;4163962;28;21036;-82
2022/01/14 07:34:27;;;;;;;32.10;12.60;;;-0.10;99.90;;;;;;4160395;28;20787;-78
2022/01/14 07:36:29;;;;;;;37.57;13.17;;;-0.10;99.90;;;;;;4168627;28;20491;-78
2022/01/14 07:38:30;;;;;;;30.70;12.20;;;-0.10;99.90;;;;;;4166666;28;20485;-79
2022/01/14 07:40:32;;;;;;;33.50;13.33;;;-0.10;99.90;;;;;;4166944;28;20837;-79
2022/01/14 07:42:34;;;;;;;36.20;13.43;;;-0.10;99.90;;;;;;4157266;28;21036;-78
2022/01/14 07:44:36;;;;;;;36.57;13.07;;;-0.10;99.90;;;;;;4163306;28;20464;-78
2022/01/14 07:46:39;;;;;;;32.17;12.47;;;-0.10;99.90;;;;;;4167643;28;20519;-78
2022/01/14 07:48:41;;;;;;;32.87;13.50;;;0.00;99.90;;;;;;4167575;28;20900;-79
2022/01/14 07:50:43;;;;;;;35.83;13.83;;;0.00;99.90;;;;;;4163464;28;20460;-79
2022/01/14 07:52:44;;;;;;;34.43;12.90;;;0.00;99.90;;;;;;4167669;28;20508;-78
2022/01/14 07:54:46;;;;;;;34.00;13.07;;;0.00;99.90;;;;;;4170077;28;20476;-79
2022/01/14 07:56:53;;;;;;;31.80;12.90;;;0.00;99.90;;;;;;4162595;28;20977;-79
2022/01/14 07:58:55;;;;;;;31.47;12.90;;;0.00;99.90;;;;;;4170685;28;20511;-78
2022/01/14 08:00:57;;;;;;;38.17;14.77;;;0.00;99.90;;;;;;4167503;28;20472;-79
2022/01/14 08:03:00;;;;;;;35.37;13.83;;;0.10;99.90;;;;;;4167792;28;20549;-78
2022/01/14 08:05:02;;;;;;;37.63;14.77;;;0.10;99.90;;;;;;4165249;28;20472;-79
2022/01/14 08:07:11;;;;;;;39.93;15.00;;;0.10;99.90;;;;;;4170643;28;20467;-79
2022/01/14 08:09:14;;;;;;;40.43;15.90;;;0.10;99.90;;;;;;4163651;28;20491;-79
2022/01/14 08:11:16;;;;;;;47.50;15.23;;;0.20;99.90;;;;;;4163617;28;20485;-79
2022/01/14 08:13:18;;;;;;;53.43;17.83;;;0.20;99.90;;;;;;4165510;28;20516;-79
2022/01/14 08:15:20;;;;;;;49.90;16.67;;;0.20;99.90;;;;;;4166098;28;20481;-79
2022/01/14 08:17:22;;;;;;;46.57;17.33;;;0.20;99.90;;;;;;4167384;28;20541;-79
2022/01/14 08:19:25;;;;;;;50.57;15.50;;;0.30;99.90;;;;;;4165384;28;20454;-78
2022/01/14 08:21:26;;;;;;;46.20;15.70;;;0.30;99.90;;;;;;4165585;28;20483;-79
2022/01/14 08:23:28;;;;;;;42.83;16.27;;;0.30;99.90;;;;;;4165921;28;20458;-78
2022/01/14 08:25:30;;;;;;;44.37;15.97;;;0.30;99.90;;;;;;4164860;28;20488;-79
2022/01/14 08:27:31;;;;;;;41.90;15.53;;;0.30;99.90;;;;;;4166332;28;20497;-79
2022/01/14 08:29:33;;;;;;;40.40;16.50;;;0.40;99.90;;;;;;4167973;28;20512;-79
2022/01/14 08:31:35;;;;;;;44.70;15.63;;;0.40;99.90;;;;;;4168482;28;21257;-79
2022/01/14 08:33:36;;;;;;;40.93;15.17;;;0.40;99.90;;;;;;4162863;28;20526;-79
2022/01/14 08:35:40;;;;;;;39.13;14.53;;;0.40;99.90;;;;;;4162722;28;20469;-78
2022/01/14 08:37:41;;;;;;;39.07;15.07;;;0.40;99.90;;;;;;4165780;28;20522;-79
2022/01/14 08:39:43;;;;;;;41.83;15.60;;;0.40;99.90;;;;;;4159640;28;20534;-79
2022/01/14 08:41:45;;;;;;;40.70;14.87;;;0.40;99.90;;;;;;4166102;28;20477;-79
2022/01/14 08:43:47;;;;;;;40.07;15.43;;;0.50;99.90;;;;;;4166576;28;20462;-79
2022/01/14 08:45:48;;;;;;;41.33;15.20;;;0.50;99.90;;;;;;4168552;28;20468;-78
2022/01/14 08:47:52;;;;;;;38.33;15.00;;;0.50;99.90;;;;;;4165640;28;20475;-79
2022/01/14 08:49:54;;;;;;;41.23;15.20;;;0.60;99.90;;;;;;4161422;28;21000;-79
2022/01/14 08:51:57;;;;;;;43.43;16.53;;;0.60;99.90;;;;;;4168484;28;20530;-79
2022/01/14 08:54:02;;;;;;;45.27;16.43;;;0.60;99.90;;;;;;4172275;28;20467;-79
2022/01/14 08:56:04;;;;;;;39.20;14.73;;;0.60;99.90;;;;;;4168734;28;21021;-79
2022/01/14 08:58:06;;;;;;;44.67;16.87;;;0.60;99.90;;;;;;4168245;28;20674;-79
2022/01/14 09:00:09;;;;;;;42.47;15.57;;;0.60;99.90;;;;;;4167934;28;20665;-79
2022/01/14 09:02:11;;;;;;;45.07;15.03;;;0.70;99.90;;;;;;4169258;28;20472;-79
2022/01/14 09:04:13;;;;;;;38.23;15.47;;;0.70;99.90;;;;;;4171469;28;20493;-79
2022/01/14 09:06:15;;;;;;;40.30;15.63;;;0.70;99.90;;;;;;4171982;28;20916;-79
2022/01/14 09:08:18;;;;;;;41.83;16.10;;;0.70;99.90;;;;;;4169290;28;20495;-79
2022/01/14 09:10:20;;;;;;;46.13;16.83;;;0.70;99.90;;;;;;4168129;28;20468;-79
2022/01/14 09:12:22;;;;;;;44.10;17.33;;;0.70;99.90;;;;;;4169621;28;20529;-79
2022/01/14 09:14:25;;;;;;;46.73;16.80;;;0.80;99.90;;;;;;4167165;28;21236;-78
2022/01/14 09:16:26;;;;;;;39.20;15.50;;;0.80;99.90;;;;;;4168240;28;20464;-78
2022/01/14 09:18:30;;;;;;;44.53;15.77;;;0.80;99.90;;;;;;4168156;28;20503;-80
2022/01/14 09:20:32;;;;;;;46.20;17.07;;;0.90;99.90;;;;;;4170907;28;20468;-80
2022/01/14 09:22:35;;;;;;;46.37;17.83;;;0.90;99.90;;;;;;4169471;28;20464;-80
2022/01/14 09:24:38;;;;;;;43.10;16.57;;;0.90;99.90;;;;;;4174069;28;20818;-80
2022/01/14 09:26:40;;;;;;;43.73;17.70;;;0.90;99.90;;;;;;4169168;28;20497;-80
2022/01/14 09:28:42;;;;;;;44.23;17.13;;;1.00;99.90;;;;;;4169519;28;20548;-80
2022/01/14 09:30:44;;;;;;;39.60;16.23;;;1.00;99.90;;;;;;4174142;28;20525;-80
2022/01/14 09:32:46;;;;;;;44.13;17.33;;;1.00;99.90;;;;;;4170117;28;20496;-80
2022/01/14 09:34:48;;;;;;;47.33;17.10;;;1.00;99.90;;;;;;4171133;28;20471;-80
2022/01/14 09:36:49;;;;;;;40.03;15.60;;;1.10;99.90;;;;;;4171943;28;21179;-80
2022/01/14 09:38:51;;;;;;;48.50;17.33;;;1.10;99.90;;;;;;4169884;28;20464;-80
2022/01/14 09:40:57;;;;;;;47.60;17.70;;;1.10;99.90;;;;;;4171631;28;20472;-80
2022/01/14 09:43:01;;;;;;;46.40;16.77;;;1.10;99.90;;;;;;4168759;28;20507;-80
2022/01/14 09:45:04;;;;;;;44.80;17.47;;;1.20;99.90;;;;;;4169105;28;20469;-80
2022/01/14 09:47:06;;;;;;;44.30;16.87;;;1.20;99.90;;;;;;4169082;28;20468;-80
2022/01/14 09:49:08;;;;;;;41.97;15.00;;;1.20;99.90;;;;;;4171893;28;20491;-80
2022/01/14 09:51:10;;;;;;;49.20;18.30;;;1.20;99.90;;;;;;4170689;28;20453;-80
2022/01/14 09:53:14;;;;;;;49.67;16.93;;;1.30;99.90;;;;;;4167143;28;20496;-80
2022/01/14 09:55:16;;;;;;;42.63;16.67;;;1.30;99.90;;;;;;4170285;28;20474;-80
2022/01/14 09:57:20;;;;;;;46.10;17.30;;;1.30;99.90;;;;;;4168797;28;20491;-81
2022/01/14 09:59:22;;;;;;;45.73;17.67;;;1.30;99.90;;;;;;4170780;28;20487;-79
2022/01/14 10:01:24;;;;;;;53.60;18.83;;;1.40;99.90;;;;;;4170997;28;20468;-81
2022/01/14 10:03:26;;;;;;;45.03;18.87;;;1.40;99.90;;;;;;4165502;28;20793;-81
2022/01/14 10:05:36;;;;;;;40.53;16.63;;;1.40;99.90;;;;;;4165430;28;20461;-81
2022/01/14 10:07:38;;;;;;;42.70;17.47;;;1.40;99.90;;;;;;4171592;28;20472;-80
2022/01/14 10:09:43;;;;;;;47.73;18.63;;;1.40;99.90;;;;;;4170894;28;20488;-81
2022/01/14 10:11:59;;;;;;;47.63;18.40;;;1.50;99.90;;;;;;4170392;28;20506;-80
2022/01/14 10:14:07;;;;;;;45.23;18.63;;;1.50;99.90;;;;;;4167303;28;20587;-81
2022/01/14 10:16:10;;;;;;;48.20;19.17;;;1.50;99.90;;;;;;4168805;28;20463;-80
2022/01/14 10:18:14;;;;;;;46.57;17.47;;;1.60;99.90;;;;;;4166259;28;20583;-81
2022/01/14 10:20:16;;;;;;;45.57;16.83;;;1.60;99.90;;;;;;4166006;28;20528;-81
2022/01/14 10:22:20;;;;;;;39.33;16.73;;;1.60;99.90;;;;;;4168311;28;20507;-81
2022/01/14 10:24:25;;;;;;;44.43;16.97;;;1.60;99.90;;;;;;4166506;28;20448;-81
2022/01/14 10:26:30;;;;;;;41.47;16.40;;;1.60;99.90;;;;;;4171070;28;20491;-81
2022/01/14 10:28:31;;;;;;;43.43;16.50;;;1.70;99.90;;;;;;4170168;28;20900;-81
2022/01/14 10:30:35;;;;;;;43.60;17.23;;;1.70;99.90;;;;;;4171753;28;20472;-80
2022/01/14 10:32:38;;;;;;;38.73;16.07;;;1.70;99.90;;;;;;4169748;28;20462;-81
2022/01/14 10:34:39;;;;;;;38.33;16.13;;;1.70;99.90;;;;;;4169632;28;20535;-81
2022/01/14 10:36:44;;;;;;;43.87;15.70;;;1.80;99.90;;;;;;4172270;28;20463;-80
2022/01/14 10:38:46;;;;;;;39.97;15.83;;;2.20;99.90;;;;;;4172454;28;20472;-81
2022/01/14 10:40:51;;;;;;;43.50;16.30;;;1.80;99.90;;;;;;4169242;28;20870;-80
2022/01/14 10:43:00;;;;;;;38.33;16.00;;;1.90;99.90;;;;;;4165493;28;20500;-81